Tropical Cyclones
[Index]
Main Index Home Page Stock Weather Photos Extreme Storms Discussion Storm News and Storm Chasing Reports Tropical Cyclones / Hurricanes / Typhoons Weather Data and Links Wild Fires / Bushfires Weather Observation Techniques Weather Picture Catalogue Tornado Pictures and Reports Stock Video Footage and DVDs for sale
Season 1971-1972 Tropical Cyclone IDA Track Map
Season 1971-1972 Summaries: [BoM-AU] [JTWC-AU] [JTWC-SIO] [JTWC-SPAC] [JTWC-SH]
<<- Previous TC | JTWC 1971-1972 Season | Next TC ->>

click for intensity scale information  Lat/long Grid: Show Hide

 Date Labels: Show Hide

Joint Typhoon Warning Centre Cyclone Data

Name: IDA
Number: 802 / 7231

29 May 1972 18:00 UTC to 05 Jun 1972 12:00 UTC

    date/time    lat    long     hPa   cat  kts
1972-05-29 18    5.1   156.4                  25          
1972-05-30 00    5.6   156.5                  30          
1972-05-30 06    6.1   156.6                  30          
1972-05-30 12    6.5   156.8                  25          
1972-05-30 18    6.9   157.2                  25          
1972-05-31 00    7.1   157.7                  30          
1972-05-31 06    7.4   158.3                  30          
1972-05-31 12    7.7   159.0                  25          
1972-05-31 18    8.2   159.6                  20          
1972-06-01 00    8.8   160.2            1     40          
1972-06-01 06    9.7   160.7            1     50          
1972-06-01 12   10.9   161.0                  30          
1972-06-01 18   12.6   161.3                  20          
1972-06-02 00   14.8   161.8                  25          
1972-06-02 06   16.7   162.5                  25          
1972-06-02 12   17.9   163.4                  30          
1972-06-02 18   19.2   164.8                  30          
1972-06-03 00   20.7   166.5                  30          
1972-06-03 06   22.3   168.3                  35          
1972-06-03 12   24.1   170.1                  35          
1972-06-03 18   25.7   171.9                  35          
1972-06-04 00   26.7   173.5            1     40          
1972-06-04 06   26.9   175.1            1     40          
1972-06-04 12   26.9   176.8            1     40          
1972-06-04 18   26.8   178.4            1     40          
1972-06-05 00   26.6   178.8            1     45          
1972-06-05 06   26.2   177.9            1     45          
1972-06-05 12   25.7   176.0            1     45          
Winds are 1-min average.

Tropical cyclone tracks developed by Michael Bath using data from the Joint Typhoon Warning Centre Best Tracks and Google Maps.


[Australian Severe Weather index] [Copyright Notice] [Email Contacts] [Search This Site] [Privacy Policy]
Document: tropical_cyclone_ida.htm Updated: 18 September 2016